sensor_id;sensor_type;location;lat;lon;timestamp;temperature;humidity
22562;DHT22;11447;50.562;8.504;2022-08-24T00:01:04;21.00;59.10
22562;DHT22;11447;50.562;8.504;2022-08-24T00:03:32;21.10;59.00
22562;DHT22;11447;50.562;8.504;2022-08-24T00:06:00;21.10;58.80
22562;DHT22;11447;50.562;8.504;2022-08-24T00:08:27;21.20;58.70
22562;DHT22;11447;50.562;8.504;2022-08-24T00:10:56;21.20;58.60
22562;DHT22;11447;50.562;8.504;2022-08-24T00:13:25;21.20;58.50
22562;DHT22;11447;50.562;8.504;2022-08-24T00:15:58;21.20;59.00
22562;DHT22;11447;50.562;8.504;2022-08-24T00:18:25;21.20;59.20
22562;DHT22;11447;50.562;8.504;2022-08-24T00:20:54;21.20;59.40
22562;DHT22;11447;50.562;8.504;2022-08-24T00:23:25;21.20;59.00
22562;DHT22;11447;50.562;8.504;2022-08-24T00:25:52;21.10;58.90
22562;DHT22;11447;50.562;8.504;2022-08-24T00:28:18;21.10;58.80
22562;DHT22;11447;50.562;8.504;2022-08-24T00:30:45;21.00;58.70
22562;DHT22;11447;50.562;8.504;2022-08-24T00:33:12;21.00;58.60
22562;DHT22;11447;50.562;8.504;2022-08-24T00:35:38;21.00;58.50
22562;DHT22;11447;50.562;8.504;2022-08-24T00:38:05;21.10;58.30
22562;DHT22;11447;50.562;8.504;2022-08-24T00:40:33;21.10;58.10
22562;DHT22;11447;50.562;8.504;2022-08-24T00:43:03;21.10;57.90
22562;DHT22;11447;50.562;8.504;2022-08-24T00:45:31;21.10;57.70
22562;DHT22;11447;50.562;8.504;2022-08-24T00:48:02;21.00;57.80
22562;DHT22;11447;50.562;8.504;2022-08-24T00:53:01;21.00;58.10
22562;DHT22;11447;50.562;8.504;2022-08-24T00:55:31;21.00;58.30
22562;DHT22;11447;50.562;8.504;2022-08-24T00:57:59;20.90;58.10
22562;DHT22;11447;50.562;8.504;2022-08-24T01:00:33;20.90;58.50
22562;DHT22;11447;50.562;8.504;2022-08-24T01:03:03;20.90;58.40
22562;DHT22;11447;50.562;8.504;2022-08-24T01:05:30;20.90;58.30
22562;DHT22;11447;50.562;8.504;2022-08-24T01:07:58;20.90;58.40
22562;DHT22;11447;50.562;8.504;2022-08-24T01:10:26;20.90;58.50
22562;DHT22;11447;50.562;8.504;2022-08-24T01:12:56;20.90;58.50
22562;DHT22;11447;50.562;8.504;2022-08-24T01:15:27;20.80;58.50
22562;DHT22;11447;50.562;8.504;2022-08-24T01:17:54;20.80;59.20
22562;DHT22;11447;50.562;8.504;2022-08-24T01:20:41;20.80;59.70
22562;DHT22;11447;50.562;8.504;2022-08-24T01:25:43;20.70;60.30
22562;DHT22;11447;50.562;8.504;2022-08-24T01:28:13;20.70;60.80
22562;DHT22;11447;50.562;8.504;2022-08-24T01:30:41;20.70;61.10
22562;DHT22;11447;50.562;8.504;2022-08-24T01:33:08;20.60;61.00
22562;DHT22;11447;50.562;8.504;2022-08-24T01:35:37;20.60;61.00
22562;DHT22;11447;50.562;8.504;2022-08-24T01:38:07;20.60;60.80
22562;DHT22;11447;50.562;8.504;2022-08-24T01:40:35;20.60;60.70
22562;DHT22;11447;50.562;8.504;2022-08-24T01:43:03;20.60;60.80
22562;DHT22;11447;50.562;8.504;2022-08-24T01:45:35;20.60;60.70
22562;DHT22;11447;50.562;8.504;2022-08-24T01:48:03;20.60;60.70
22562;DHT22;11447;50.562;8.504;2022-08-24T01:50:30;20.50;60.80
22562;DHT22;11447;50.562;8.504;2022-08-24T01:53:01;20.50;60.80
22562;DHT22;11447;50.562;8.504;2022-08-24T01:55:31;20.50;60.90
22562;DHT22;11447;50.562;8.504;2022-08-24T01:58:00;20.50;61.60
22562;DHT22;11447;50.562;8.504;2022-08-24T02:00:27;20.40;62.00
22562;DHT22;11447;50.562;8.504;2022-08-24T02:02:56;20.40;62.30
22562;DHT22;11447;50.562;8.504;2022-08-24T02:05:25;20.40;62.30
22562;DHT22;11447;50.562;8.504;2022-08-24T02:07:52;20.30;62.40
22562;DHT22;11447;50.562;8.504;2022-08-24T02:10:21;20.30;62.80
22562;DHT22;11447;50.562;8.504;2022-08-24T02:12:47;20.20;64.50
22562;DHT22;11447;50.562;8.504;2022-08-24T02:15:30;20.10;63.80
22562;DHT22;11447;50.562;8.504;2022-08-24T02:17:57;20.10;63.90
22562;DHT22;11447;50.562;8.504;2022-08-24T02:20:24;20.10;64.10
22562;DHT22;11447;50.562;8.504;2022-08-24T02:22:50;20.10;64.20
22562;DHT22;11447;50.562;8.504;2022-08-24T02:25:18;20.00;64.80
22562;DHT22;11447;50.562;8.504;2022-08-24T02:27:47;20.00;63.60
22562;DHT22;11447;50.562;8.504;2022-08-24T02:30:14;20.00;63.80
22562;DHT22;11447;50.562;8.504;2022-08-24T02:32:41;19.90;64.30
22562;DHT22;11447;50.562;8.504;2022-08-24T02:35:08;19.90;64.50
22562;DHT22;11447;50.562;8.504;2022-08-24T02:37:35;19.90;64.50
22562;DHT22;11447;50.562;8.504;2022-08-24T02:40:09;19.90;64.20
22562;DHT22;11447;50.562;8.504;2022-08-24T02:42:36;19.90;64.30
22562;DHT22;11447;50.562;8.504;2022-08-24T02:45:03;19.90;64.40
22562;DHT22;11447;50.562;8.504;2022-08-24T02:47:30;19.90;64.20
22562;DHT22;11447;50.562;8.504;2022-08-24T02:50:07;19.80;64.40
22562;DHT22;11447;50.562;8.504;2022-08-24T02:52:37;19.70;65.00
22562;DHT22;11447;50.562;8.504;2022-08-24T02:55:05;19.70;65.50
22562;DHT22;11447;50.562;8.504;2022-08-24T02:57:32;19.70;65.90
22562;DHT22;11447;50.562;8.504;2022-08-24T03:00:01;19.70;66.20
22562;DHT22;11447;50.562;8.504;2022-08-24T03:02:34;19.80;66.40
22562;DHT22;11447;50.562;8.504;2022-08-24T03:05:01;19.80;66.00
22562;DHT22;11447;50.562;8.504;2022-08-24T03:07:28;19.70;65.70
22562;DHT22;11447;50.562;8.504;2022-08-24T03:09:55;19.70;65.70
22562;DHT22;11447;50.562;8.504;2022-08-24T03:12:22;19.70;65.50
22562;DHT22;11447;50.562;8.504;2022-08-24T03:14:48;19.60;65.70
22562;DHT22;11447;50.562;8.504;2022-08-24T03:17:15;19.60;66.10
22562;DHT22;11447;50.562;8.504;2022-08-24T03:19:41;19.60;66.10
22562;DHT22;11447;50.562;8.504;2022-08-24T03:22:08;19.50;66.30
22562;DHT22;11447;50.562;8.504;2022-08-24T03:24:37;19.50;66.40
22562;DHT22;11447;50.562;8.504;2022-08-24T03:27:04;19.50;66.20
22562;DHT22;11447;50.562;8.504;2022-08-24T03:29:31;19.50;66.00
22562;DHT22;11447;50.562;8.504;2022-08-24T03:32:01;19.50;65.70
22562;DHT22;11447;50.562;8.504;2022-08-24T03:34:27;19.60;65.80
22562;DHT22;11447;50.562;8.504;2022-08-24T03:36:54;19.50;66.00
22562;DHT22;11447;50.562;8.504;2022-08-24T03:39:21;19.50;66.00
22562;DHT22;11447;50.562;8.504;2022-08-24T03:41:47;19.50;66.40
22562;DHT22;11447;50.562;8.504;2022-08-24T03:44:14;19.40;66.70
22562;DHT22;11447;50.562;8.504;2022-08-24T03:46:40;19.40;67.10
22562;DHT22;11447;50.562;8.504;2022-08-24T03:49:11;19.40;67.90
22562;DHT22;11447;50.562;8.504;2022-08-24T03:51:38;19.40;68.10
22562;DHT22;11447;50.562;8.504;2022-08-24T03:54:06;19.40;68.20
22562;DHT22;11447;50.562;8.504;2022-08-24T03:56:34;19.30;68.10
22562;DHT22;11447;50.562;8.504;2022-08-24T03:59:03;19.20;68.30
22562;DHT22;11447;50.562;8.504;2022-08-24T04:01:30;19.10;68.90
22562;DHT22;11447;50.562;8.504;2022-08-24T04:03:57;19.00;69.10
22562;DHT22;11447;50.562;8.504;2022-08-24T04:06:24;19.10;69.20
22562;DHT22;11447;50.562;8.504;2022-08-24T04:08:51;19.10;68.90
22562;DHT22;11447;50.562;8.504;2022-08-24T04:11:21;19.10;68.50
22562;DHT22;11447;50.562;8.504;2022-08-24T04:13:52;19.00;68.30
22562;DHT22;11447;50.562;8.504;2022-08-24T04:16:22;19.10;68.20
22562;DHT22;11447;50.562;8.504;2022-08-24T04:18:52;19.10;68.10
22562;DHT22;11447;50.562;8.504;2022-08-24T04:21:22;19.00;68.10
22562;DHT22;11447;50.562;8.504;2022-08-24T04:23:50;18.90;68.40
22562;DHT22;11447;50.562;8.504;2022-08-24T04:26:21;18.90;68.80
22562;DHT22;11447;50.562;8.504;2022-08-24T04:29:09;18.90;69.40
22562;DHT22;11447;50.562;8.504;2022-08-24T04:31:36;18.90;69.80
22562;DHT22;11447;50.562;8.504;2022-08-24T04:34:04;18.90;69.50
22562;DHT22;11447;50.562;8.504;2022-08-24T04:36:31;19.00;69.70
22562;DHT22;11447;50.562;8.504;2022-08-24T04:38:58;19.00;69.30
22562;DHT22;11447;50.562;8.504;2022-08-24T04:41:28;19.00;69.10
22562;DHT22;11447;50.562;8.504;2022-08-24T04:43:57;19.00;68.90
22562;DHT22;11447;50.562;8.504;2022-08-24T04:46:27;19.00;69.10
22562;DHT22;11447;50.562;8.504;2022-08-24T04:48:56;19.00;69.30
22562;DHT22;11447;50.562;8.504;2022-08-24T04:51:23;19.10;69.60
22562;DHT22;11447;50.562;8.504;2022-08-24T04:53:52;19.10;70.00
22562;DHT22;11447;50.562;8.504;2022-08-24T04:56:22;19.10;70.50
22562;DHT22;11447;50.562;8.504;2022-08-24T04:58:50;19.10;70.60
22562;DHT22;11447;50.562;8.504;2022-08-24T05:01:20;19.00;70.80
22562;DHT22;11447;50.562;8.504;2022-08-24T05:03:48;19.00;70.80
22562;DHT22;11447;50.562;8.504;2022-08-24T05:06:16;19.00;70.70
22562;DHT22;11447;50.562;8.504;2022-08-24T05:08:43;19.00;69.90
22562;DHT22;11447;50.562;8.504;2022-08-24T05:11:12;19.00;69.40
22562;DHT22;11447;50.562;8.504;2022-08-24T05:13:39;19.00;68.90
22562;DHT22;11447;50.562;8.504;2022-08-24T05:16:07;19.00;68.30
22562;DHT22;11447;50.562;8.504;2022-08-24T05:18:34;19.00;68.10
22562;DHT22;11447;50.562;8.504;2022-08-24T05:21:01;19.00;67.90
22562;DHT22;11447;50.562;8.504;2022-08-24T05:23:30;19.00;67.90
22562;DHT22;11447;50.562;8.504;2022-08-24T05:26:12;19.10;67.80
22562;DHT22;11447;50.562;8.504;2022-08-24T05:28:40;19.10;67.70
22562;DHT22;11447;50.562;8.504;2022-08-24T05:31:07;19.10;67.50
22562;DHT22;11447;50.562;8.504;2022-08-24T05:33:34;19.20;68.10
22562;DHT22;11447;50.562;8.504;2022-08-24T05:36:02;19.20;67.30
22562;DHT22;11447;50.562;8.504;2022-08-24T05:38:29;19.20;67.50
22562;DHT22;11447;50.562;8.504;2022-08-24T05:40:55;19.20;67.60
22562;DHT22;11447;50.562;8.504;2022-08-24T05:43:22;19.20;67.90
22562;DHT22;11447;50.562;8.504;2022-08-24T05:45:51;19.20;68.10
22562;DHT22;11447;50.562;8.504;2022-08-24T05:48:20;19.10;67.80
22562;DHT22;11447;50.562;8.504;2022-08-24T05:50:56;19.10;68.00
22562;DHT22;11447;50.562;8.504;2022-08-24T05:53:23;19.10;68.40
22562;DHT22;11447;50.562;8.504;2022-08-24T05:55:50;19.10;69.30
22562;DHT22;11447;50.562;8.504;2022-08-24T05:58:19;19.00;70.00
22562;DHT22;11447;50.562;8.504;2022-08-24T06:00:57;19.00;70.40
22562;DHT22;11447;50.562;8.504;2022-08-24T06:03:26;19.00;70.10
22562;DHT22;11447;50.562;8.504;2022-08-24T06:05:54;19.00;70.20
22562;DHT22;11447;50.562;8.504;2022-08-24T06:08:23;19.10;70.00
22562;DHT22;11447;50.562;8.504;2022-08-24T06:10:50;19.20;69.60
22562;DHT22;11447;50.562;8.504;2022-08-24T06:13:19;19.30;69.40
22562;DHT22;11447;50.562;8.504;2022-08-24T06:15:45;19.40;68.70
22562;DHT22;11447;50.562;8.504;2022-08-24T06:18:33;19.30;68.60
22562;DHT22;11447;50.562;8.504;2022-08-24T06:21:10;19.30;69.00
22562;DHT22;11447;50.562;8.504;2022-08-24T06:23:42;19.30;69.00
22562;DHT22;11447;50.562;8.504;2022-08-24T06:26:10;19.40;69.00
22562;DHT22;11447;50.562;8.504;2022-08-24T06:28:55;19.50;68.70
22562;DHT22;11447;50.562;8.504;2022-08-24T06:31:25;19.70;68.40
22562;DHT22;11447;50.562;8.504;2022-08-24T06:33:53;19.90;68.10
22562;DHT22;11447;50.562;8.504;2022-08-24T06:36:20;20.00;68.40
22562;DHT22;11447;50.562;8.504;2022-08-24T06:38:48;20.20;68.30
22562;DHT22;11447;50.562;8.504;2022-08-24T06:41:15;20.30;68.30
22562;DHT22;11447;50.562;8.504;2022-08-24T06:43:45;21.40;66.60
22562;DHT22;11447;50.562;8.504;2022-08-24T06:46:15;23.30;61.40
22562;DHT22;11447;50.562;8.504;2022-08-24T06:48:45;24.60;56.90
22562;DHT22;11447;50.562;8.504;2022-08-24T06:51:15;25.80;54.40
22562;DHT22;11447;50.562;8.504;2022-08-24T06:53:43;26.90;51.80
22562;DHT22;11447;50.562;8.504;2022-08-24T06:56:09;27.80;49.70
22562;DHT22;11447;50.562;8.504;2022-08-24T06:58:41;28.10;48.60
22562;DHT22;11447;50.562;8.504;2022-08-24T07:01:12;28.50;48.00
22562;DHT22;11447;50.562;8.504;2022-08-24T07:03:39;28.60;47.30
22562;DHT22;11447;50.562;8.504;2022-08-24T07:06:06;29.20;46.80
22562;DHT22;11447;50.562;8.504;2022-08-24T07:08:34;29.90;45.90
22562;DHT22;11447;50.562;8.504;2022-08-24T07:11:01;30.60;43.80
22562;DHT22;11447;50.562;8.504;2022-08-24T07:13:30;31.00;42.20
22562;DHT22;11447;50.562;8.504;2022-08-24T07:15:57;31.00;42.40
22562;DHT22;11447;50.562;8.504;2022-08-24T07:18:24;31.40;42.10
22562;DHT22;11447;50.562;8.504;2022-08-24T07:20:52;31.70;41.30
22562;DHT22;11447;50.562;8.504;2022-08-24T07:23:19;31.70;41.20
22562;DHT22;11447;50.562;8.504;2022-08-24T07:25:46;31.50;41.00
22562;DHT22;11447;50.562;8.504;2022-08-24T07:28:21;30.80;41.60
22562;DHT22;11447;50.562;8.504;2022-08-24T07:30:57;30.30;42.10
22562;DHT22;11447;50.562;8.504;2022-08-24T07:33:23;29.90;42.70
22562;DHT22;11447;50.562;8.504;2022-08-24T07:35:50;29.50;44.10
22562;DHT22;11447;50.562;8.504;2022-08-24T07:38:21;29.70;43.80
22562;DHT22;11447;50.562;8.504;2022-08-24T07:40:50;29.80;43.90
22562;DHT22;11447;50.562;8.504;2022-08-24T07:43:38;29.80;44.20
22562;DHT22;11447;50.562;8.504;2022-08-24T07:46:08;29.90;43.80
22562;DHT22;11447;50.562;8.504;2022-08-24T07:48:35;29.20;43.50
22562;DHT22;11447;50.562;8.504;2022-08-24T07:51:05;28.80;44.50
22562;DHT22;11447;50.562;8.504;2022-08-24T07:53:32;28.60;44.80
22562;DHT22;11447;50.562;8.504;2022-08-24T07:56:21;28.30;45.20
22562;DHT22;11447;50.562;8.504;2022-08-24T07:58:48;28.40;45.30
22562;DHT22;11447;50.562;8.504;2022-08-24T08:01:20;28.30;45.00
22562;DHT22;11447;50.562;8.504;2022-08-24T08:03:47;28.10;45.00
22562;DHT22;11447;50.562;8.504;2022-08-24T08:06:16;27.90;45.50
22562;DHT22;11447;50.562;8.504;2022-08-24T08:08:42;27.80;45.70
22562;DHT22;11447;50.562;8.504;2022-08-24T08:11:11;27.60;46.00
22562;DHT22;11447;50.562;8.504;2022-08-24T08:13:39;27.40;46.30
22562;DHT22;11447;50.562;8.504;2022-08-24T08:16:10;27.30;46.40
22562;DHT22;11447;50.562;8.504;2022-08-24T08:18:37;27.20;46.50
22562;DHT22;11447;50.562;8.504;2022-08-24T08:21:04;27.00;46.90
22562;DHT22;11447;50.562;8.504;2022-08-24T08:23:31;26.90;47.30
22562;DHT22;11447;50.562;8.504;2022-08-24T08:26:17;26.90;47.20
22562;DHT22;11447;50.562;8.504;2022-08-24T08:28:46;26.70;47.50
22562;DHT22;11447;50.562;8.504;2022-08-24T08:31:15;26.90;47.50
22562;DHT22;11447;50.562;8.504;2022-08-24T08:33:42;27.00;47.30
22562;DHT22;11447;50.562;8.504;2022-08-24T08:36:10;27.20;47.30
22562;DHT22;11447;50.562;8.504;2022-08-24T08:38:40;27.30;47.10
22562;DHT22;11447;50.562;8.504;2022-08-24T08:43:41;27.60;46.60
22562;DHT22;11447;50.562;8.504;2022-08-24T08:49:02;27.80;45.70
22562;DHT22;11447;50.562;8.504;2022-08-24T08:54:31;27.70;46.20
22562;DHT22;11447;50.562;8.504;2022-08-24T08:59:52;27.70;46.10
22562;DHT22;11447;50.562;8.504;2022-08-24T09:10:27;28.20;45.90
22562;DHT22;11447;50.562;8.504;2022-08-24T09:15:38;28.20;45.20
22562;DHT22;11447;50.562;8.504;2022-08-24T09:26:25;28.10;44.30
22562;DHT22;11447;50.562;8.504;2022-08-24T09:34:07;28.30;43.80
22562;DHT22;11447;50.562;8.504;2022-08-24T09:39:11;28.20;44.40
22562;DHT22;11447;50.562;8.504;2022-08-24T09:44:29;28.40;44.70
22562;DHT22;11447;50.562;8.504;2022-08-24T10:00:29;28.20;44.10
22562;DHT22;11447;50.562;8.504;2022-08-24T10:03:07;28.20;44.20
22562;DHT22;11447;50.562;8.504;2022-08-24T10:16:14;28.30;43.80
22562;DHT22;11447;50.562;8.504;2022-08-24T10:18:56;28.40;43.90
22562;DHT22;11447;50.562;8.504;2022-08-24T10:24:18;28.50;43.60
22562;DHT22;11447;50.562;8.504;2022-08-24T10:34:37;28.60;41.60
22562;DHT22;11447;50.562;8.504;2022-08-24T10:40:03;28.80;41.30
22562;DHT22;11447;50.562;8.504;2022-08-24T10:45:52;29.00;42.50
22562;DHT22;11447;50.562;8.504;2022-08-24T10:53:46;29.00;41.20
22562;DHT22;11447;50.562;8.504;2022-08-24T10:56:16;29.20;41.30
22562;DHT22;11447;50.562;8.504;2022-08-24T11:01:27;29.20;40.50
22562;DHT22;11447;50.562;8.504;2022-08-24T11:06:22;29.30;40.90
22562;DHT22;11447;50.562;8.504;2022-08-24T11:09:00;29.30;40.00
22562;DHT22;11447;50.562;8.504;2022-08-24T11:11:32;29.30;40.50
22562;DHT22;11447;50.562;8.504;2022-08-24T11:14:01;29.30;39.50
22562;DHT22;11447;50.562;8.504;2022-08-24T11:16:30;29.40;40.00
22562;DHT22;11447;50.562;8.504;2022-08-24T11:18:58;29.50;39.40
22562;DHT22;11447;50.562;8.504;2022-08-24T11:24:02;29.60;39.80
22562;DHT22;11447;50.562;8.504;2022-08-24T11:26:34;29.70;39.30
22562;DHT22;11447;50.562;8.504;2022-08-24T11:29:10;29.70;38.40
22562;DHT22;11447;50.562;8.504;2022-08-24T11:31:38;29.70;39.40
22562;DHT22;11447;50.562;8.504;2022-08-24T11:34:08;29.80;39.30
22562;DHT22;11447;50.562;8.504;2022-08-24T11:36:36;29.90;38.40
22562;DHT22;11447;50.562;8.504;2022-08-24T11:39:19;30.00;38.60
22562;DHT22;11447;50.562;8.504;2022-08-24T11:42:34;30.00;37.60
22562;DHT22;11447;50.562;8.504;2022-08-24T11:47:06;30.00;38.20
22562;DHT22;11447;50.562;8.504;2022-08-24T11:49:51;30.10;37.90
22562;DHT22;11447;50.562;8.504;2022-08-24T11:55:40;30.20;37.30
22562;DHT22;11447;50.562;8.504;2022-08-24T12:05:57;30.30;38.10
22562;DHT22;11447;50.562;8.504;2022-08-24T12:11:05;30.30;37.50
22562;DHT22;11447;50.562;8.504;2022-08-24T12:16:21;30.40;35.80
22562;DHT22;11447;50.562;8.504;2022-08-24T12:18:52;30.50;36.40
22562;DHT22;11447;50.562;8.504;2022-08-24T12:21:21;30.50;36.00
22562;DHT22;11447;50.562;8.504;2022-08-24T12:24:08;30.50;36.10
22562;DHT22;11447;50.562;8.504;2022-08-24T12:29:15;30.50;36.50
22562;DHT22;11447;50.562;8.504;2022-08-24T12:31:51;30.50;37.00
22562;DHT22;11447;50.562;8.504;2022-08-24T12:39:21;30.40;37.00
22562;DHT22;11447;50.562;8.504;2022-08-24T12:42:01;30.50;36.40
22562;DHT22;11447;50.562;8.504;2022-08-24T12:44:34;30.50;35.40
22562;DHT22;11447;50.562;8.504;2022-08-24T12:47:05;30.60;34.90
22562;DHT22;11447;50.562;8.504;2022-08-24T12:49:44;30.70;35.90
22562;DHT22;11447;50.562;8.504;2022-08-24T12:52:13;30.70;34.80
22562;DHT22;11447;50.562;8.504;2022-08-24T13:03:03;30.70;35.10
22562;DHT22;11447;50.562;8.504;2022-08-24T13:05:45;30.80;34.50
22562;DHT22;11447;50.562;8.504;2022-08-24T13:11:03;30.80;34.20
22562;DHT22;11447;50.562;8.504;2022-08-24T13:13:42;30.80;34.10
22562;DHT22;11447;50.562;8.504;2022-08-24T13:16:09;30.80;35.10
22562;DHT22;11447;50.562;8.504;2022-08-24T13:21:33;30.70;34.60
22562;DHT22;11447;50.562;8.504;2022-08-24T13:26:45;30.80;35.00
22562;DHT22;11447;50.562;8.504;2022-08-24T13:29:14;30.90;34.80
22562;DHT22;11447;50.562;8.504;2022-08-24T13:31:46;31.00;34.50
22562;DHT22;11447;50.562;8.504;2022-08-24T13:36:48;30.90;34.60
22562;DHT22;11447;50.562;8.504;2022-08-24T13:55:46;31.20;33.90
22562;DHT22;11447;50.562;8.504;2022-08-24T14:04:15;31.20;34.20
22562;DHT22;11447;50.562;8.504;2022-08-24T14:06:53;31.30;33.80
22562;DHT22;11447;50.562;8.504;2022-08-24T14:09:36;31.40;33.60
22562;DHT22;11447;50.562;8.504;2022-08-24T14:14:49;31.30;33.80
22562;DHT22;11447;50.562;8.504;2022-08-24T14:20:08;31.20;34.10
22562;DHT22;11447;50.562;8.504;2022-08-24T14:23:12;31.20;33.90
22562;DHT22;11447;50.562;8.504;2022-08-24T14:25:34;31.30;33.70
22562;DHT22;11447;50.562;8.504;2022-08-24T14:44:15;31.50;32.00
22562;DHT22;11447;50.562;8.504;2022-08-24T14:46:27;31.50;33.30
22562;DHT22;11447;50.562;8.504;2022-08-24T14:49:17;31.50;32.40
22562;DHT22;11447;50.562;8.504;2022-08-24T14:54:20;31.50;33.00
22562;DHT22;11447;50.562;8.504;2022-08-24T15:04:54;31.50;33.50
22562;DHT22;11447;50.562;8.504;2022-08-24T15:07:29;31.50;32.60
22562;DHT22;11447;50.562;8.504;2022-08-24T15:09:57;31.60;32.60
22562;DHT22;11447;50.562;8.504;2022-08-24T15:23:08;31.60;31.70
22562;DHT22;11447;50.562;8.504;2022-08-24T15:25:38;31.50;31.70
22562;DHT22;11447;50.562;8.504;2022-08-24T15:28:20;31.50;31.50
22562;DHT22;11447;50.562;8.504;2022-08-24T15:30:57;31.50;32.20
22562;DHT22;11447;50.562;8.504;2022-08-24T15:33:25;31.50;31.80
22562;DHT22;11447;50.562;8.504;2022-08-24T15:36:03;31.50;32.00
22562;DHT22;11447;50.562;8.504;2022-08-24T15:38:31;31.50;32.60
22562;DHT22;11447;50.562;8.504;2022-08-24T15:41:09;31.50;31.70
22562;DHT22;11447;50.562;8.504;2022-08-24T15:43:43;31.50;31.30
22562;DHT22;11447;50.562;8.504;2022-08-24T15:46:10;31.50;31.10
22562;DHT22;11447;50.562;8.504;2022-08-24T15:48:39;31.50;30.90
22562;DHT22;11447;50.562;8.504;2022-08-24T15:51:09;31.40;31.00
22562;DHT22;11447;50.562;8.504;2022-08-24T15:53:54;31.40;31.30
22562;DHT22;11447;50.562;8.504;2022-08-24T15:56:24;31.40;31.60
22562;DHT22;11447;50.562;8.504;2022-08-24T15:58:51;31.40;31.50
22562;DHT22;11447;50.562;8.504;2022-08-24T16:01:19;31.40;32.00
22562;DHT22;11447;50.562;8.504;2022-08-24T16:06:42;31.30;32.20
22562;DHT22;11447;50.562;8.504;2022-08-24T16:11:42;31.40;33.20
22562;DHT22;11447;50.562;8.504;2022-08-24T16:14:13;31.30;32.10
22562;DHT22;11447;50.562;8.504;2022-08-24T16:16:43;31.40;32.10
22562;DHT22;11447;50.562;8.504;2022-08-24T16:19:17;31.40;31.80
22562;DHT22;11447;50.562;8.504;2022-08-24T16:24:29;31.40;32.40
22562;DHT22;11447;50.562;8.504;2022-08-24T16:27:04;31.40;32.80
22562;DHT22;11447;50.562;8.504;2022-08-24T16:32:04;31.30;32.10
22562;DHT22;11447;50.562;8.504;2022-08-24T16:34:47;31.30;31.90
22562;DHT22;11447;50.562;8.504;2022-08-24T16:37:16;31.30;31.50
22562;DHT22;11447;50.562;8.504;2022-08-24T16:39:43;31.30;31.70
22562;DHT22;11447;50.562;8.504;2022-08-24T16:42:22;31.20;32.10
22562;DHT22;11447;50.562;8.504;2022-08-24T16:44:53;31.20;32.20
22562;DHT22;11447;50.562;8.504;2022-08-24T16:47:20;31.20;32.00
22562;DHT22;11447;50.562;8.504;2022-08-24T16:49:47;31.20;31.90
22562;DHT22;11447;50.562;8.504;2022-08-24T16:52:14;31.20;31.80
22562;DHT22;11447;50.562;8.504;2022-08-24T16:54:44;31.10;32.10
22562;DHT22;11447;50.562;8.504;2022-08-24T16:57:12;31.10;32.30
22562;DHT22;11447;50.562;8.504;2022-08-24T16:59:40;31.10;32.30
22562;DHT22;11447;50.562;8.504;2022-08-24T17:02:07;31.00;32.40
22562;DHT22;11447;50.562;8.504;2022-08-24T17:04:37;31.00;32.60
22562;DHT22;11447;50.562;8.504;2022-08-24T17:07:05;31.00;32.80
22562;DHT22;11447;50.562;8.504;2022-08-24T17:09:34;30.90;33.00
22562;DHT22;11447;50.562;8.504;2022-08-24T17:12:02;30.90;33.30
22562;DHT22;11447;50.562;8.504;2022-08-24T17:14:28;30.80;32.60
22562;DHT22;11447;50.562;8.504;2022-08-24T17:16:57;30.80;33.00
22562;DHT22;11447;50.562;8.504;2022-08-24T17:19:24;30.80;33.20
22562;DHT22;11447;50.562;8.504;2022-08-24T17:21:56;30.70;32.90
22562;DHT22;11447;50.562;8.504;2022-08-24T17:24:23;30.60;32.70
22562;DHT22;11447;50.562;8.504;2022-08-24T17:26:50;30.60;32.70
22562;DHT22;11447;50.562;8.504;2022-08-24T17:29:20;30.60;33.10
22562;DHT22;11447;50.562;8.504;2022-08-24T17:31:48;30.50;32.70
22562;DHT22;11447;50.562;8.504;2022-08-24T17:34:15;30.50;32.80
22562;DHT22;11447;50.562;8.504;2022-08-24T17:36:42;30.40;32.70
22562;DHT22;11447;50.562;8.504;2022-08-24T17:39:10;30.40;32.70
22562;DHT22;11447;50.562;8.504;2022-08-24T17:41:37;30.40;32.90
22562;DHT22;11447;50.562;8.504;2022-08-24T17:44:05;30.30;32.90
22562;DHT22;11447;50.562;8.504;2022-08-24T17:46:33;30.30;33.20
22562;DHT22;11447;50.562;8.504;2022-08-24T17:49:00;30.20;32.90
22562;DHT22;11447;50.562;8.504;2022-08-24T17:51:29;30.20;33.20
22562;DHT22;11447;50.562;8.504;2022-08-24T17:53:56;30.20;33.10
22562;DHT22;11447;50.562;8.504;2022-08-24T17:56:25;30.20;33.50
22562;DHT22;11447;50.562;8.504;2022-08-24T17:58:55;30.10;33.70
22562;DHT22;11447;50.562;8.504;2022-08-24T18:01:40;30.10;33.50
22562;DHT22;11447;50.562;8.504;2022-08-24T18:04:06;30.10;33.70
22562;DHT22;11447;50.562;8.504;2022-08-24T18:06:33;30.00;33.50
22562;DHT22;11447;50.562;8.504;2022-08-24T18:09:05;30.00;33.70
22562;DHT22;11447;50.562;8.504;2022-08-24T18:11:32;30.00;34.20
22562;DHT22;11447;50.562;8.504;2022-08-24T18:14:01;29.90;34.00
22562;DHT22;11447;50.562;8.504;2022-08-24T18:16:28;29.80;33.90
22562;DHT22;11447;50.562;8.504;2022-08-24T18:18:54;29.80;34.60
22562;DHT22;11447;50.562;8.504;2022-08-24T18:21:22;29.80;34.90
22562;DHT22;11447;50.562;8.504;2022-08-24T18:23:49;29.70;34.50
22562;DHT22;11447;50.562;8.504;2022-08-24T18:26:19;29.70;35.20
22562;DHT22;11447;50.562;8.504;2022-08-24T18:28:51;29.60;35.30
22562;DHT22;11447;50.562;8.504;2022-08-24T18:31:18;29.60;35.60
22562;DHT22;11447;50.562;8.504;2022-08-24T18:33:46;29.50;35.10
22562;DHT22;11447;50.562;8.504;2022-08-24T18:36:12;29.50;35.10
22562;DHT22;11447;50.562;8.504;2022-08-24T18:38:40;29.40;35.00
22562;DHT22;11447;50.562;8.504;2022-08-24T18:41:11;29.40;35.10
22562;DHT22;11447;50.562;8.504;2022-08-24T18:43:38;29.30;35.70
22562;DHT22;11447;50.562;8.504;2022-08-24T18:46:08;29.30;36.00
22562;DHT22;11447;50.562;8.504;2022-08-24T18:48:34;29.30;36.00
22562;DHT22;11447;50.562;8.504;2022-08-24T18:51:02;29.20;35.70
22562;DHT22;11447;50.562;8.504;2022-08-24T18:53:31;29.20;35.90
22562;DHT22;11447;50.562;8.504;2022-08-24T18:56:03;29.20;36.10
22562;DHT22;11447;50.562;8.504;2022-08-24T18:58:37;29.20;36.10
22562;DHT22;11447;50.562;8.504;2022-08-24T19:01:04;29.10;36.10
22562;DHT22;11447;50.562;8.504;2022-08-24T19:03:31;29.00;36.20
22562;DHT22;11447;50.562;8.504;2022-08-24T19:05:58;29.00;36.40
22562;DHT22;11447;50.562;8.504;2022-08-24T19:08:25;28.90;36.30
22562;DHT22;11447;50.562;8.504;2022-08-24T19:10:52;28.80;36.60
22562;DHT22;11447;50.562;8.504;2022-08-24T19:13:18;28.80;36.90
22562;DHT22;11447;50.562;8.504;2022-08-24T19:15:45;28.70;37.20
22562;DHT22;11447;50.562;8.504;2022-08-24T19:18:13;28.60;37.60
22562;DHT22;11447;50.562;8.504;2022-08-24T19:20:43;28.50;37.80
22562;DHT22;11447;50.562;8.504;2022-08-24T19:23:27;28.40;38.00
22562;DHT22;11447;50.562;8.504;2022-08-24T19:25:55;28.40;38.50
22562;DHT22;11447;50.562;8.504;2022-08-24T19:28:22;28.30;38.60